新東京国際空港の過去48時間の天気

新東京国際空港 (Tokyo/New Tokyo Intl)

現在時刻: 12/9 23:14 JST (12/9 14:14 UTC) 以下の時間は現地時間です。

過去48時間のMETAR気象情報
時間 風向 風速(m/s) 視程 気温(℃) 湿度(%) 気圧(hPa) 天気現象
9 23:00 北西 4 8000m 7 87 1025 弱い雨
9 22:30 北北西 4 10km以上 7 87 1025 弱い雨
9 22:00 北西 4 10km以上 7 87 1025 弱い雨
9 21:30 北西 4 10km以上 7 87 1025 弱い雨
9 21:00 北西 4 10km以上 8 81 1025 弱い雨
9 20:30 北西 4 10km以上 8 81 1025
9 20:00 北北西 5 10km以上 8 81 1025
9 19:30 北西 4 10km以上 8 81 1025
9 19:00 北北西 4 10km以上 7 87 1025
9 18:30 北北西 5 10km以上 8 87 1025
9 18:00 北北西 5 10km以上 9 81 1025
9 17:30 5 10km以上 10 76 1026
9 17:00 4 10km以上 10 71 1026
9 16:30 4 10km以上 10 76 1025
9 16:00 北北東 3 10km以上 10 76 1025
9 15:30 北北東 3 10km以上 10 71 1025
9 15:00 北北東 3 10km以上 10 71 1025
9 14:30 4 10km以上 10 71 1025
9 14:00 4 10km以上 10 71 1025
9 13:30 北北東 4 10km以上 10 71 1026
9 13:00 5 10km以上 10 71 1026
9 12:30 5 10km以上 10 71 1026
9 12:00 6 10km以上 10 71 1026
9 11:30 北北東 6 10km以上 11 62 1026
9 11:00 北北東 6 10km以上 10 66 1027
9 10:30 6 10km以上 9 66 1027
9 10:00 5 10km以上 8 71 1028
9 09:30 北北西 5 10km以上 7 70 1028
9 09:00 北北西 5 10km以上 6 76 1028
9 08:30 北北西 4 10km以上 4 81 1028
9 08:00 北北西 4 10km以上 4 81 1028
9 07:30 北北西 4 10km以上 3 81 1028
9 07:00 北西 2 10km以上 2 87 1028
9 06:30 北西 3 10km以上 2 87 1027
9 06:00 3 10km以上 1 93 1027
9 05:30 北北西 2 10km以上 1 86 1027
9 05:00 4 10km以上 1 93 1026
9 04:30 北北西 4 10km以上 1 93 1026
9 04:00 北北西 4 10km以上 2 81 1026
9 03:30 北北西 3 10km以上 2 87 1026
9 03:00 北北西 3 10km以上 2 87 1026
9 02:30 3 10km以上 2 81 1026
9 02:00 北北西 3 10km以上 2 81 1026
9 01:30 北北西 4 10km以上 2 81 1026
9 01:00 北北西 3 10km以上 3 75 1026
9 00:30 3 10km以上 3 70 1026
9 00:00 4 10km以上 4 70 1026
8 23:30 4 10km以上 5 65 1026
8 23:00 5 10km以上 4 70 1026
8 22:30 北北東 4 10km以上 5 65 1026
8 22:00 北北東 4 10km以上 5 61 1026
8 21:30 北北東 4 10km以上 6 61 1026
8 21:00 北北東 4 10km以上 6 65 1026
8 20:30 北北東 4 10km以上 6 70 1026
8 20:00 4 10km以上 8 71 1025
8 19:30 不定 1 10km以上 4 93 1025
8 19:00 不定 1 10km以上 5 87 1025
8 18:30 不定 1 10km以上 6 87 1024
8 18:00 東北東 2 10km以上 9 71 1024
8 17:30 東北東 3 10km以上 10 66 1024
8 17:00 東北東 3 10km以上 10 66 1023
8 16:30 東北東 3 10km以上 10 62 1023
8 16:00 東北東 3 10km以上 11 50 1023
8 15:30 北東 3 10km以上 12 47 1022
8 15:00 北北東 3 10km以上 12 47 1022
8 14:30 北西 2 10km以上 12 44 1021
8 14:00 北西 2 10km以上 12 44 1021
8 13:30 東北東 2 10km以上 12 47 1021
8 13:00 不定 1 10km以上 12 47 1021
8 12:30 北北東 2 10km以上 12 47 1021
8 12:00 北東 2 10km以上 12 50 1021
8 11:30 3 10km以上 12 54 1021
8 11:00 3 10km以上 11 50 1021
8 10:30 3 10km以上 10 54 1022
8 10:00 北北東 3 10km以上 10 62 1022
8 09:30 4 10km以上 9 66 1022
8 09:00 北北西 3 10km以上 7 76 1022
8 08:30 北西 3 10km以上 5 87 1021
8 08:00 北北西 2 8000m 2 100 1021
8 07:30 北北西 2 4000m 1 100 1021 もや
8 07:00 北西 2 4000m 1 100 1020 もや
8 06:30 1 4000m 1 93 1020 地霧 もや
8 06:00 北北西 2 4000m 0 100 1019 もや
8 05:30 不定 1 3000m 0 93 1019 地霧 もや
8 05:00 北北西 2 3500m 1 93 1019 地霧 もや
8 04:30 北西 2 4000m 1 93 1018 地霧 もや
RJAA 091400Z 32007KT 8000 -RA FEW015 BKN030 07/05 Q1025 NOSIG
RJAA 091330Z 33007KT 9999 -RA FEW015 BKN030 07/05 Q1025 NOSIG RMK 1CU015 7SC030 A3028
RJAA 091300Z 31007KT 9999 -RA FEW020 BKN035 07/05 Q1025 NOSIG RMK 1CU020 7SC035 A3029
RJAA 091230Z 32008KT 9999 -RA FEW020 BKN035 07/05 Q1025 NOSIG RMK 1CU020 7SC035 A3028
RJAA 091200Z 32008KT 9999 -RA FEW020 BKN040 08/05 Q1025 NOSIG RMK 1CU020 7SC040 A3028
RJAA 091130Z 32007KT 9999 FEW020 BKN040 08/05 Q1025 NOSIG RMK 1CU020 7SC040 A3029
RJAA 091100Z 33009KT 9999 FEW020 BKN040 08/05 Q1025 NOSIG RMK 1CU020 7SC040 A3029
RJAA 091030Z 32007KT 9999 FEW020 BKN050 BKN080 08/05 Q1025 NOSIG RMK 1CU020 5SC050 7AC080 A3029
RJAA 091000Z 33008KT 9999 FEW020 SCT050 BKN100 07/05 Q1025 NOSIG RMK 1CU020 4SC050 7AC100 A3028
RJAA 090930Z 34010KT 9999 FEW020 SCT050 BKN100 08/06 Q1025 NOSIG RMK 1CU020 4SC050 7AC100 A3029
RJAA 090900Z 34009KT 9999 FEW020 SCT030 BKN060 09/06 Q1025 NOSIG RMK 1CU020 4CU030 7SC060 A3029
RJAA 090830Z 35009KT 320V030 9999 FEW020 SCT030 BKN040 10/06 Q1026 NOSIG RMK 1CU020 3CU030 7SC040 A3030
RJAA 090800Z 35007KT 310V030 9999 FEW020 BKN030 10/05 Q1026 NOSIG RMK 1CU020 7SC030 A3030
RJAA 090730Z 01008KT 9999 FEW020 BKN030 10/06 Q1025 NOSIG RMK 1CU020 7SC030 A3029
RJAA 090700Z 02006KT 9999 FEW020 BKN026 10/06 Q1025 NOSIG RMK 1CU020 7SC026 A3029
RJAA 090630Z 02005KT 350V060 9999 FEW020 BKN026 10/05 Q1025 NOSIG RMK 1CU020 7SC026 A3029
RJAA 090600Z 02006KT 9999 FEW020 BKN027 10/05 Q1025 NOSIG RMK 1CU020 7SC027 A3029
RJAA 090530Z 36007KT 330V040 9999 FEW020 BKN028 10/05 Q1025 NOSIG RMK 1CU020 7SC028 A3029
RJAA 090500Z 01008KT 9999 FEW020 BKN028 10/05 Q1025 NOSIG RMK 1CU020 7SC028 A3029
RJAA 090430Z 02008KT 9999 FEW020 BKN027 10/05 Q1026 NOSIG RMK 1CU020 7SC027 A3030
RJAA 090400Z 01010KT 9999 FEW020 BKN027 10/05 Q1026 NOSIG RMK 1CU020 7SC027 A3030
RJAA 090330Z 01010KT 9999 FEW025 BKN040 10/05 Q1026 NOSIG RMK 1CU025 7SC040 A3031
RJAA 090300Z 01011KT 9999 FEW025 BKN040 10/05 Q1026 NOSIG RMK 1CU025 6SC040 A3031
RJAA 090230Z 02012KT 9999 FEW025 SCT040 11/04 Q1026 NOSIG RMK 1CU025 4SC040 A3032
RJAA 090200Z 02012KT 9999 FEW025 SCT060 10/04 Q1027 NOSIG RMK 1CU025 4SC060 A3033
RJAA 090130Z 36012KT 9999 FEW025 SCT070 09/03 Q1027 NOSIG RMK 2CU025 4AC070 A3035
RJAA 090100Z 35010KT 9999 FEW020 SCT070 08/03 Q1028 NOSIG RMK 1CU020 3AC070 A3036
RJAA 090030Z 33010KT 9999 FEW020 BKN070 07/02 Q1028 NOSIG RMK 1CU020 5AC070 A3037
RJAA 090000Z 34010KT 9999 FEW030 06/02 Q1028 NOSIG RMK 1CU030 A3036
RJAA 082330Z 33007KT 9999 FEW030 SCT070 04/01 Q1028 NOSIG RMK 1CU030 4AC070 A3037
RJAA 082300Z 33008KT 9999 FEW020 SCT040 BKN070 04/01 Q1028 NOSIG RMK 1CU020 4SC040 7AC070 A3037
RJAA 082230Z 34007KT 9999 FEW020 BKN040 03/00 Q1028 NOSIG RMK 1CU020 7SC040 A3036
RJAA 082200Z 32004KT 9999 FEW020 BKN040 02/00 Q1028 NOSIG RMK 1CU020 6SC040 A3036
RJAA 082130Z 32006KT 9999 FEW020 SCT035 02/00 Q1027 NOSIG RMK 1CU020 3SC035 A3035
RJAA 082100Z 35006KT 9999 FEW020 01/M00 Q1027 NOSIG RMK 1CU020 A3034
RJAA 082030Z 34003KT 310V010 9999 FEW020 01/M01 Q1027 NOSIG RMK 1CU020 A3033
RJAA 082000Z 35007KT 9999 FEW020 01/M00 Q1026 NOSIG RMK 1CU020 A3032
RJAA 081930Z 34008KT 9999 FEW020 01/M00 Q1026 NOSIG RMK 1CU020 A3032
RJAA 081900Z 34007KT 9999 FEW020 02/M01 Q1026 NOSIG RMK 1CU020 A3032
RJAA 081830Z 33005KT 9999 FEW020 02/M00 Q1026 NOSIG RMK 1CU020 A3032
RJAA 081800Z 33006KT 9999 FEW020 02/M00 Q1026 NOSIG RMK 1CU020 A3032
RJAA 081730Z 35006KT 9999 FEW020 02/M01 Q1026 NOSIG RMK 1CU020 A3032
RJAA 081700Z 34005KT 9999 FEW020 02/M01 Q1026 NOSIG RMK 1CU020 A3032
RJAA 081630Z 34007KT 9999 FEW020 02/M01 Q1026 NOSIG RMK 1CU020 A3032
RJAA 081600Z 34006KT 9999 FEW020 03/M01 Q1026 NOSIG RMK 1CU020 A3032
RJAA 081530Z 35006KT 9999 FEW020 03/M02 Q1026 NOSIG RMK 1CU020 A3032
RJAA 081500Z 01008KT 9999 FEW020 04/M01 Q1026 NOSIG RMK 1CU020 A3032
RJAA 081430Z 36008KT 9999 FEW020 05/M01 Q1026 NOSIG RMK 1CU020 A3032
RJAA 081400Z 01009KT 9999 FEW020 04/M01 Q1026 NOSIG RMK 1CU020 A3031
RJAA 081330Z 02007KT 9999 FEW020 05/M01 Q1026 NOSIG RMK 1CU020 A3031
RJAA 081300Z 02008KT 9999 FEW020 05/M02 Q1026 NOSIG RMK 1CU020 A3031
RJAA 081230Z 03008KT 9999 FEW020 06/M01 Q1026 NOSIG RMK 1CU020 A3031
RJAA 081200Z 02007KT 9999 FEW020 06/00 Q1026 NOSIG RMK 1CU020 A3030
RJAA 081130Z 02007KT 9999 FEW020 06/01 Q1026 NOSIG RMK 1CU020 A3030
RJAA 081100Z 01007KT 340V050 9999 FEW020 08/03 Q1025 NOSIG RMK 1CU020 A3029
RJAA 081030Z VRB01KT 9999 FEW020 04/03 Q1025 BECMG 02006KT
RJAA 081000Z VRB01KT 9999 FEW020 05/03 Q1025 BECMG TL1030 05005KT
RJAA 080930Z VRB02KT 9999 FEW020 06/04 Q1024 BECMG TL1000 05005KT RMK 1CU020 A3026
RJAA 080900Z 06004KT 020V120 9999 FEW020 09/04 Q1024 BECMG TL1000 05005KT RMK 1CU020 A3025
RJAA 080830Z 06005KT 020V100 9999 FEW020 10/04 Q1024 BECMG TL1000 05005KT
RJAA 080800Z 07005KT 030V100 9999 FEW020 10/04 Q1023 NOSIG RMK 1CU020 A3023
RJAA 080730Z 06005KT 360V090 9999 FEW030 10/03 Q1023 BECMG 09005KT
RJAA 080700Z 06006KT 010V090 9999 FEW040 11/01 Q1023 BECMG 09005KT RMK 1CU040 A3021
RJAA 080630Z 05005KT 350V090 9999 FEW040 12/01 Q1022 BECMG 09005KT
RJAA 080600Z 03005KT 360V060 9999 FEW040 12/01 Q1022 BECMG 09005KT
RJAA 080530Z 32003KT 270V030 9999 FEW040 12/00 Q1021 BECMG 09005KT RMK 1CU040 A3017
RJAA 080500Z 32003KT 260V010 9999 FEW040 12/M00 Q1021 BECMG 09005KT RMK 1CU040 A3017
RJAA 080430Z 06003KT 010V150 9999 FEW040 12/01 Q1021 BECMG 09005KT
RJAA 080400Z VRB01KT 9999 FEW040 12/01 Q1021 NOSIG RMK 1CU040 A3016
RJAA 080330Z 03004KT 340V080 9999 FEW040 12/01 Q1021 NOSIG RMK 1CU040 A3016
RJAA 080300Z 05004KT 340V150 9999 FEW040 12/02 Q1021 NOSIG RMK 1CU040 A3016
RJAA 080230Z 35005KT 310V080 9999 FEW040 12/03 Q1021 NOSIG RMK 1CU040 A3017
RJAA 080200Z 01006KT 330V030 9999 FEW040 11/01 Q1021 NOSIG RMK 1CU040 A3018
RJAA 080130Z 01006KT 320V050 9999 FEW030 10/01 Q1022 NOSIG RMK 1CU030 A3018
RJAA 080100Z 02005KT 330V060 9999 FEW030 10/03 Q1022 NOSIG RMK 1CU030 A3018
RJAA 080030Z 01007KT 9999 FEW030 09/03 Q1022 NOSIG RMK 1CU030 A3018
RJAA 080000Z 34005KT 9999 FEW030 07/03 Q1022 NOSIG RMK 1CU030 A3018
RJAA 072330Z 32005KT 9999 FEW015 05/03 Q1021 NOSIG RMK 1CU015 A3017
RJAA 072300Z 34004KT 8000 FEW015 02/02 Q1021 NOSIG RMK 1CU015 A3016
RJAA 072230Z 33004KT 4000 BR FEW015 01/01 Q1021 BECMG 6000 NSW RMK 1CU015 A3015
RJAA 072200Z 31004KT 4000 R34L/P2000N R34R/P2000N BR FEW015 01/01 Q1020 BECMG 6000 NSW
RJAA 072130Z 35002KT 4000 R34L/P2000N R34R/P2000N MIFG BR FEW015 01/00 Q1020 BECMG 6000 NSW
RJAA 072100Z 34003KT 4000 BR FEW015 M00/M00 Q1019 BECMG 6000 NSW
RJAA 072030Z VRB02KT 3000 R34L/P2000N R34R/P2000N MIFG BR FEW015 M00/M01 Q1019 NOSIG RMK 1CU015 A3010 MIFG IS FREEZING
RJAA 072000Z 33004KT 3500 R34L/P2000N R34R/2000N MIFG BR FEW015 01/00 Q1019 TEMPO 3000 BR MIFG RMK 1CU015 A3010
RJAA 071930Z 32003KT 4000 R34L/P2000N R34R/2000N MIFG BR FEW015 01/00 Q1018 TEMPO 3000 BR MIFG